createdAt,value
2023-04-22T00:00:00.137Z, 90
2023-04-22T00:02:00.101Z, 88.9
2023-04-22T00:04:00.395Z, 88.4
2023-04-22T00:06:00.383Z, 88.5
2023-04-22T00:08:00.092Z, 89.4
2023-04-22T00:10:00.133Z, 90.1
2023-04-22T00:12:00.113Z, 89.9
2023-04-22T00:14:00.093Z, 89.4
2023-04-22T00:16:00.252Z, 89.3
2023-04-22T00:18:00.164Z, 89.5
2023-04-22T00:20:00.132Z, 88.9
2023-04-22T00:22:00.063Z, 88.4
2023-04-22T00:24:00.103Z, 88.1
2023-04-22T00:26:00.053Z, 87.6
2023-04-22T00:28:00.069Z, 87
2023-04-22T00:30:00.083Z, 86.5
2023-04-22T00:32:00.038Z, 87
2023-04-22T00:34:00.037Z, 88.5
2023-04-22T00:36:00.064Z, 89.4
2023-04-22T00:38:00.036Z, 89.6
2023-04-22T00:40:00.062Z, 89.3
2023-04-22T00:42:00.035Z, 90.4
2023-04-22T00:44:00.050Z, 91.5
2023-04-22T00:46:00.032Z, 92.6
2023-04-22T00:48:00.152Z, 93.1
2023-04-22T00:50:00.109Z, 94
2023-04-22T00:52:00.109Z, 95.2
2023-04-22T00:54:00.143Z, 96.1
2023-04-22T00:56:00.109Z, 97.1
2023-04-22T00:58:00.120Z, 98
2023-04-22T01:00:00.215Z, 97.8
2023-04-22T01:02:00.134Z, 96.8
2023-04-22T01:04:00.302Z, 96.2
2023-04-22T01:06:00.150Z, 95.3
2023-04-22T01:08:00.119Z, 94.2
2023-04-22T01:10:00.153Z, 92.9
2023-04-22T01:12:00.103Z, 91.4
2023-04-22T01:14:00.134Z, 91.6
2023-04-22T01:16:00.114Z, 92.4
2023-04-22T01:18:00.212Z, 93.4
2023-04-22T01:20:00.079Z, 93.7
2023-04-22T01:22:00.069Z, 93.2
2023-04-22T01:24:00.085Z, 92.7
2023-04-22T01:26:00.045Z, 91.8
2023-04-22T01:28:00.052Z, 91.4
2023-04-22T01:30:00.059Z, 91
2023-04-22T01:32:00.102Z, 90.6
2023-04-22T01:34:00.053Z, 90.2
2023-04-22T01:36:00.054Z, 90.5
2023-04-22T01:38:00.053Z, 91.6
2023-04-22T01:40:00.050Z, 92.2
2023-04-22T01:42:00.049Z, 93.6
2023-04-22T01:44:00.027Z, 94.9
2023-04-22T01:46:00.085Z, 95.3
2023-04-22T01:48:00.108Z, 96
2023-04-22T01:50:00.151Z, 95.9
2023-04-22T01:52:00.130Z, 95.8
2023-04-22T01:54:00.124Z, 95.4
2023-04-22T01:56:00.140Z, 95.7
2023-04-22T01:58:00.146Z, 95.8
2023-04-22T02:00:00.170Z, 96.3
2023-04-22T02:02:00.621Z, 96.6
2023-04-22T02:04:00.126Z, 97
2023-04-22T02:06:00.142Z, 96.8
2023-04-22T02:08:00.140Z, 96.1
2023-04-22T02:10:00.164Z, 95.2
2023-04-22T02:12:00.132Z, 94.9
2023-04-22T02:14:00.130Z, 94.2
2023-04-22T02:16:00.214Z, 93.5
2023-04-22T02:18:00.222Z, 93.5
2023-04-22T02:20:00.132Z, 93.5
2023-04-22T02:22:00.043Z, 92.7
2023-04-22T02:24:00.067Z, 92
2023-04-22T02:26:00.051Z, 91.7
2023-04-22T02:28:00.049Z, 91.1
2023-04-22T02:30:00.068Z, 90.5
2023-04-22T02:32:00.076Z, 90
2023-04-22T02:34:00.049Z, 90.6
2023-04-22T02:36:00.062Z, 91.5
2023-04-22T02:38:00.054Z, 91
2023-04-22T02:40:00.053Z, 90.9
2023-04-22T02:42:00.066Z, 93
2023-04-22T02:44:00.045Z, 94.3
2023-04-22T02:46:00.046Z, 94.6
2023-04-22T02:48:00.089Z, 94
2023-04-22T02:50:00.120Z, 93.5
2023-04-22T02:52:00.085Z, 92.8
2023-04-22T02:54:00.119Z, 92.4
2023-04-22T02:56:00.096Z, 92.6
2023-04-22T02:58:00.116Z, 92.9
2023-04-22T03:00:00.123Z, 94.3
2023-04-22T03:02:00.127Z, 96
2023-04-22T03:04:00.513Z, 97.6
2023-04-22T03:06:00.160Z, 98
2023-04-22T03:08:00.129Z, 97.4
2023-04-22T03:10:00.144Z, 96.1
2023-04-22T03:12:00.131Z, 95.3
2023-04-22T03:14:00.124Z, 95.3
2023-04-22T03:16:00.154Z, 95
2023-04-22T03:18:00.253Z, 94.7
2023-04-22T03:20:00.064Z, 93.7
2023-04-22T03:22:00.057Z, 93.5
2023-04-22T03:24:00.061Z, 93.4
2023-04-22T03:26:00.048Z, 93
2023-04-22T03:28:00.055Z, 92.3
2023-04-22T03:30:00.059Z, 91.8
2023-04-22T03:32:00.114Z, 92.2
2023-04-22T03:34:00.040Z, 93
2023-04-22T03:36:00.048Z, 94.9
2023-04-22T03:38:00.038Z, 96.6
2023-04-22T03:40:00.053Z, 97.6
2023-04-22T03:42:00.061Z, 98.3
2023-04-22T03:44:01.840Z, 97.4
2023-04-22T03:46:00.121Z, 96.6
2023-04-22T03:48:00.052Z, 95.9
2023-04-22T03:50:00.135Z, 94.8
2023-04-22T03:52:00.113Z, 94.5
2023-04-22T03:54:00.123Z, 94
2023-04-22T03:56:00.160Z, 93.3
2023-04-22T03:58:00.108Z, 93.4
2023-04-22T04:00:00.132Z, 93.6
2023-04-22T04:02:00.121Z, 93.6
2023-04-22T04:04:00.283Z, 94.6
2023-04-22T04:06:00.359Z, 95.6
2023-04-22T04:08:00.112Z, 96.7
2023-04-22T04:10:00.141Z, 97
2023-04-22T04:12:00.129Z, 97.2
2023-04-22T04:14:00.114Z, 97.1
2023-04-22T04:16:00.365Z, 96.7
2023-04-22T04:18:00.210Z, 96.2
2023-04-22T04:20:00.090Z, 95.9
2023-04-22T04:22:01.710Z, 95.2
2023-04-22T04:24:00.063Z, 95.9
2023-04-22T04:26:00.043Z, 96.7
2023-04-22T04:28:00.058Z, 97.7
2023-04-22T04:30:00.058Z, 98.5
2023-04-22T04:32:00.045Z, 98
2023-04-22T04:34:00.037Z, 97.2
2023-04-22T04:36:00.034Z, 95.7
2023-04-22T04:38:00.044Z, 96
2023-04-22T04:40:00.045Z, 95.7
2023-04-22T04:42:00.043Z, 96.2
2023-04-22T04:44:00.032Z, 97
2023-04-22T04:46:00.014Z, 98
2023-04-22T04:48:00.095Z, 98.6
2023-04-22T04:50:00.138Z, 98.5
2023-04-22T04:52:00.138Z, 97.4
2023-04-22T04:54:00.121Z, 95.6
2023-04-22T04:56:00.137Z, 94.8
2023-04-22T04:58:00.119Z, 93.6
2023-04-22T05:00:00.108Z, 92.9
2023-04-22T05:02:00.174Z, 93
2023-04-22T05:04:00.338Z, 93.5
2023-04-22T05:06:00.117Z, 94.5
2023-04-22T05:08:00.138Z, 95.5
2023-04-22T05:10:00.122Z, 96.1
2023-04-22T05:12:00.134Z, 95.5
2023-04-22T05:14:00.145Z, 94.2
2023-04-22T05:16:00.185Z, 93.8
2023-04-22T05:18:00.192Z, 93.5
2023-04-22T05:20:05.100Z, 93.2
2023-04-22T05:22:00.140Z, 92.8
2023-04-22T05:24:00.069Z, 92.2
2023-04-22T05:26:00.065Z, 92.2
2023-04-22T05:28:00.068Z, 93
2023-04-22T05:30:00.111Z, 92.6
2023-04-22T05:32:00.097Z, 93.8
2023-04-22T05:34:00.041Z, 96.4
2023-04-22T05:36:00.068Z, 99
2023-04-22T05:38:00.044Z, 100
2023-04-22T05:40:00.048Z, 100
2023-04-22T05:42:00.060Z, 100
2023-04-22T05:44:00.061Z, 99.3
2023-04-22T05:46:00.073Z, 97.5
2023-04-22T05:48:00.088Z, 94.9
2023-04-22T05:50:00.153Z, 91.4
2023-04-22T05:52:00.161Z, 90.5
2023-04-22T05:54:00.135Z, 89.5
2023-04-22T05:56:00.159Z, 89.4
2023-04-22T05:58:00.133Z, 88.5
2023-04-22T06:00:00.186Z, 86.9
2023-04-22T06:02:00.124Z, 86.2
2023-04-22T06:04:00.420Z, 84.6
2023-04-22T06:06:00.343Z, 81.2
2023-04-22T06:08:00.121Z, 80.3
2023-04-22T06:10:05.144Z, 80.8
2023-04-22T06:12:00.132Z, 81.9
2023-04-22T06:14:00.129Z, 82.5
2023-04-22T06:16:00.231Z, 82.7
2023-04-22T06:18:00.195Z, 81.1
2023-04-22T06:20:00.093Z, 80.8
2023-04-22T06:22:00.099Z, 81.9
2023-04-22T06:24:00.099Z, 83.2
2023-04-22T06:26:00.044Z, 85
2023-04-22T06:28:00.065Z, 83.9
2023-04-22T06:30:00.046Z, 83.2
2023-04-22T06:32:00.041Z, 82.4
2023-04-22T06:34:00.048Z, 81.3
2023-04-22T06:36:00.061Z, 78.3
2023-04-22T06:38:00.053Z, 76.1
2023-04-22T06:40:00.082Z, 73.3
2023-04-22T06:42:00.122Z, 71.7
2023-04-22T06:44:00.073Z, 73.6
2023-04-22T06:46:00.049Z, 73
2023-04-22T06:48:00.203Z, 72.5
2023-04-22T06:50:00.143Z, 73.6
2023-04-22T06:52:00.106Z, 73
2023-04-22T06:54:00.135Z, 75.7
2023-04-22T06:56:00.114Z, 77.4
2023-04-22T06:58:00.125Z, 76.4
2023-04-22T07:00:00.109Z, 76.8
2023-04-22T07:02:00.097Z, 76.6
2023-04-22T07:04:00.141Z, 75.8
2023-04-22T07:06:00.114Z, 75.5
2023-04-22T07:08:00.111Z, 76.8
2023-04-22T07:10:00.126Z, 77.7
2023-04-22T07:12:00.105Z, 75.5
2023-04-22T07:14:00.118Z, 73.4
2023-04-22T07:16:00.145Z, 73
2023-04-22T07:18:00.185Z, 73.4
2023-04-22T07:20:00.093Z, 73.1
2023-04-22T07:22:00.090Z, 73
2023-04-22T07:24:00.094Z, 72.4
2023-04-22T07:26:00.067Z, 73.1
2023-04-22T07:28:00.059Z, 73.9
2023-04-22T07:30:00.096Z, 74
2023-04-22T07:32:00.099Z, 71.1
2023-04-22T07:34:00.041Z, 71.2
2023-04-22T07:36:00.106Z, 70.8
2023-04-22T07:38:00.045Z, 70.6
2023-04-22T07:40:00.052Z, 70.4
2023-04-22T07:42:00.085Z, 69.5
2023-04-22T07:44:00.057Z, 69.3
2023-04-22T07:46:00.097Z, 69.1
2023-04-22T07:48:00.084Z, 69.9
2023-04-22T07:50:00.093Z, 69.7
2023-04-22T07:52:00.081Z, 69.6
2023-04-22T07:54:00.096Z, 68
2023-04-22T07:56:02.038Z, 62.5
2023-04-22T07:58:00.111Z, 64.5
2023-04-22T08:00:00.139Z, 64.8
2023-04-22T08:02:00.150Z, 57.2
2023-04-22T08:04:00.411Z, 55.4
2023-04-22T08:06:00.166Z, 55.2
2023-04-22T08:08:00.142Z, 52.1
2023-04-22T08:10:00.100Z, 51.7
2023-04-22T08:12:00.099Z, 51
2023-04-22T08:14:00.155Z, 50.5
2023-04-22T08:16:00.147Z, 51
2023-04-22T08:18:00.159Z, 52.1
2023-04-22T08:20:00.072Z, 52.1
2023-04-22T08:22:00.067Z, 52.1
2023-04-22T08:24:00.069Z, 51.4
2023-04-22T08:26:00.057Z, 50.2
2023-04-22T08:28:00.074Z, 49.5
2023-04-22T08:30:00.117Z, 48.6
2023-04-22T08:32:00.052Z, 48.4
2023-04-22T08:34:00.078Z, 47
2023-04-22T08:36:00.048Z, 47.8
2023-04-22T08:38:00.040Z, 48.6
2023-04-22T08:40:00.086Z, 49.1
2023-04-22T08:42:00.107Z, 48.3
2023-04-22T08:44:00.058Z, 49.7
2023-04-22T08:46:00.043Z, 48.8
2023-04-22T08:48:00.103Z, 47.7
2023-04-22T08:50:00.149Z, 49.1
2023-04-22T08:52:00.119Z, 47.4
2023-04-22T08:54:00.127Z, 48.2
2023-04-22T08:56:00.121Z, 47.6
2023-04-22T08:58:00.147Z, 47.3
2023-04-22T09:00:00.206Z, 45.7
2023-04-22T09:02:00.161Z, 48.2
2023-04-22T09:04:00.241Z, 46.3
2023-04-22T09:06:00.156Z, 46.3
2023-04-22T09:08:00.138Z, 46.3
2023-04-22T09:10:00.170Z, 46.6
2023-04-22T09:12:00.127Z, 46
2023-04-22T09:14:00.123Z, 45.1
2023-04-22T09:16:00.228Z, 45.4
2023-04-22T09:18:00.153Z, 48.5
2023-04-22T09:20:00.067Z, 46.8
2023-04-22T09:22:00.065Z, 46.2
2023-04-22T09:24:00.079Z, 46.1
2023-04-22T09:26:00.074Z, 46
2023-04-22T09:28:00.065Z, 47.6
2023-04-22T09:30:00.088Z, 46.5
2023-04-22T09:32:00.103Z, 44.9
2023-04-22T09:34:00.070Z, 46.3
2023-04-22T09:36:00.082Z, 46.7
2023-04-22T09:38:00.105Z, 46.2
2023-04-22T09:40:00.065Z, 45.6
2023-04-22T09:42:00.064Z, 44.8
2023-04-22T09:44:00.052Z, 44.6
2023-04-22T09:46:00.137Z, 45.3
2023-04-22T09:48:00.096Z, 45.5
2023-04-22T09:50:00.112Z, 44.6
2023-04-22T09:52:00.115Z, 43.8
2023-04-22T09:54:00.153Z, 46.9
2023-04-22T09:56:00.137Z, 43.7
2023-04-22T09:58:00.127Z, 45.3
2023-04-22T10:00:00.159Z, 44.6
2023-04-22T10:02:00.150Z, 46
2023-04-22T10:04:00.172Z, 44.9
2023-04-22T10:06:00.122Z, 46
2023-04-22T10:08:00.204Z, 45.2
2023-04-22T10:10:00.104Z, 44.8
2023-04-22T10:12:00.150Z, 45.8
2023-04-22T10:14:00.127Z, 45.6
2023-04-22T10:16:00.126Z, 45.2
2023-04-22T10:18:00.167Z, 47
2023-04-22T10:20:00.030Z, 45
2023-04-22T10:22:00.017Z, 47.4
2023-04-22T10:24:00.059Z, 43.3
2023-04-22T10:25:59.986Z, 42.6
2023-04-22T10:28:00.034Z, 42.6
2023-04-22T10:30:00.051Z, 44.8
2023-04-22T10:32:00.023Z, 46.2
2023-04-22T10:34:00.034Z, 45.8
2023-04-22T10:36:00.059Z, 46
2023-04-22T10:37:59.998Z, 45.7
2023-04-22T10:39:59.995Z, 43.9
2023-04-22T10:42:00.013Z, 44
2023-04-22T10:44:00.004Z, 43
2023-04-22T10:46:00.086Z, 44
2023-04-22T10:48:00.016Z, 45.2
2023-04-22T10:50:00.218Z, 46.6
2023-04-22T10:52:00.136Z, 45
2023-04-22T10:54:00.122Z, 45.4
2023-04-22T10:56:00.122Z, 45.2
2023-04-22T10:58:00.129Z, 44.9
2023-04-22T11:00:00.132Z, 45
2023-04-22T11:02:00.185Z, 46.6
2023-04-22T11:04:00.192Z, 46.9
2023-04-22T11:06:00.143Z, 44.9
2023-04-22T11:08:00.132Z, 46.3
2023-04-22T11:10:00.166Z, 46.3
2023-04-22T11:12:00.128Z, 46.5
2023-04-22T11:14:00.137Z, 46.7
2023-04-22T11:16:00.191Z, 44.3
2023-04-22T11:18:00.138Z, 45.1
2023-04-22T11:20:00.093Z, 45.1
2023-04-22T11:22:00.079Z, 46.7
2023-04-22T11:24:00.082Z, 46.4
2023-04-22T11:26:00.060Z, 44.4
2023-04-22T11:28:00.053Z, 45.8
2023-04-22T11:30:00.068Z, 46.9
2023-04-22T11:32:00.056Z, 44.4
2023-04-22T11:34:00.062Z, 48
2023-04-22T11:36:00.062Z, 42.8
2023-04-22T11:38:00.057Z, 41.7
2023-04-22T11:40:17.308Z, 43.9
2023-04-22T11:42:00.058Z, 43.2
2023-04-22T11:44:00.055Z, 43.4
2023-04-22T11:46:00.152Z, 42.7
2023-04-22T11:48:00.131Z, 43.4
2023-04-22T11:50:00.165Z, 43.3
2023-04-22T11:52:00.132Z, 44.2
2023-04-22T11:54:00.141Z, 44.1
2023-04-22T11:56:00.138Z, 43.3
2023-04-22T11:58:00.113Z, 46.4
2023-04-22T12:00:00.164Z, 47.2
2023-04-22T12:02:00.149Z, 45.8
2023-04-22T12:04:00.299Z, 46.9
2023-04-22T12:06:00.163Z, 48.1
2023-04-22T12:08:00.129Z, 45.5
2023-04-22T12:10:00.153Z, 46.6
2023-04-22T12:12:00.128Z, 47.6
2023-04-22T12:14:00.136Z, 48.9
2023-04-22T12:16:00.122Z, 46.3
2023-04-22T12:18:00.257Z, 44.6
2023-04-22T12:20:00.098Z, 46.1
2023-04-22T12:22:00.100Z, 46.6
2023-04-22T12:24:00.129Z, 44.8
2023-04-22T12:26:00.064Z, 43.9
2023-04-22T12:28:00.040Z, 42.2
2023-04-22T12:30:00.060Z, 45
2023-04-22T12:32:00.041Z, 45.3
2023-04-22T12:34:00.060Z, 44.7
2023-04-22T12:36:00.064Z, 44.3
2023-04-22T12:38:00.071Z, 44.5
2023-04-22T12:40:00.096Z, 45.6
2023-04-22T12:42:00.096Z, 46
2023-04-22T12:44:00.079Z, 46
2023-04-22T12:46:00.156Z, 45.3
2023-04-22T12:48:00.153Z, 44.2
2023-04-22T12:50:00.133Z, 44.5
2023-04-22T12:52:00.146Z, 44.3
2023-04-22T12:54:00.127Z, 46
2023-04-22T12:56:00.091Z, 47
2023-04-22T12:58:00.134Z, 45.5
2023-04-22T13:00:00.166Z, 45.9
2023-04-22T13:02:00.156Z, 47.2
2023-04-22T13:04:00.254Z, 45.2
2023-04-22T13:06:00.156Z, 45.5
2023-04-22T13:08:07.322Z, 47.3
2023-04-22T13:10:00.139Z, 45.2
2023-04-22T13:12:00.130Z, 45.9
2023-04-22T13:14:00.106Z, 44.6
2023-04-22T13:16:00.166Z, 44.9
2023-04-22T13:18:00.159Z, 44.4
2023-04-22T13:20:00.099Z, 44.4
2023-04-22T13:22:00.057Z, 44.6
2023-04-22T13:24:00.080Z, 44
2023-04-22T13:26:00.057Z, 44.7
2023-04-22T13:28:00.070Z, 45.8
2023-04-22T13:30:00.049Z, 45.9
2023-04-22T13:32:00.061Z, 45.8
2023-04-22T13:34:00.043Z, 46.4
2023-04-22T13:36:00.049Z, 45.8
2023-04-22T13:38:00.072Z, 47.3
2023-04-22T13:40:00.063Z, 46.7
2023-04-22T13:42:00.058Z, 44.1
2023-04-22T13:44:00.034Z, 45.7
2023-04-22T13:46:00.070Z, 47.1
2023-04-22T13:48:00.078Z, 46.7
2023-04-22T13:50:00.166Z, 47.2
2023-04-22T13:52:00.118Z, 47.4
2023-04-22T13:54:00.188Z, 47.9
2023-04-22T13:56:00.142Z, 48.1
2023-04-22T13:58:00.124Z, 48.1
2023-04-22T14:00:00.216Z, 48.3
2023-04-22T14:02:00.134Z, 47.5
2023-04-22T14:04:00.262Z, 47.7
2023-04-22T14:06:00.137Z, 47.9
2023-04-22T14:08:00.137Z, 48
2023-04-22T14:10:00.158Z, 47.6
2023-04-22T14:12:00.142Z, 47.5
2023-04-22T14:14:00.102Z, 47
2023-04-22T14:16:00.138Z, 46.1
2023-04-22T14:18:00.189Z, 46.4
2023-04-22T14:20:00.120Z, 45.1
2023-04-22T14:22:00.075Z, 45.6
2023-04-22T14:24:00.075Z, 46.1
2023-04-22T14:26:00.066Z, 45.7
2023-04-22T14:28:00.047Z, 46
2023-04-22T14:30:00.044Z, 46.1
2023-04-22T14:32:00.067Z, 46.6
2023-04-22T14:34:00.040Z, 46.7
2023-04-22T14:36:00.076Z, 46.7
2023-04-22T14:38:00.054Z, 47.6
2023-04-22T14:40:00.091Z, 46.8
2023-04-22T14:42:00.061Z, 48.1
2023-04-22T14:44:00.064Z, 47.5
2023-04-22T14:46:00.112Z, 48.8
2023-04-22T14:48:00.123Z, 49.9
2023-04-22T14:50:00.138Z, 51.2
2023-04-22T14:52:00.126Z, 52.2
2023-04-22T14:54:00.130Z, 53.1
2023-04-22T14:56:00.123Z, 52.6
2023-04-22T14:58:00.082Z, 52.5
2023-04-22T15:00:00.122Z, 52
2023-04-22T15:02:00.249Z, 51.2
2023-04-22T15:04:00.271Z, 51.4
2023-04-22T15:06:00.124Z, 50.6
2023-04-22T15:08:00.110Z, 51.1
2023-04-22T15:10:00.131Z, 51
2023-04-22T15:12:00.113Z, 50.3
2023-04-22T15:14:00.120Z, 50.3
2023-04-22T15:16:00.159Z, 50.8
2023-04-22T15:18:00.137Z, 50.6
2023-04-22T15:20:00.098Z, 52.1
2023-04-22T15:22:00.076Z, 52.4
2023-04-22T15:24:00.066Z, 52.2
2023-04-22T15:26:00.098Z, 52.5
2023-04-22T15:28:00.075Z, 55
2023-04-22T15:30:00.119Z, 55.8
2023-04-22T15:32:00.076Z, 55.1
2023-04-22T15:34:00.037Z, 54.3
2023-04-22T15:36:00.089Z, 53.9
2023-04-22T15:38:00.049Z, 53.6
2023-04-22T15:40:00.098Z, 52.6
2023-04-22T15:42:00.069Z, 51.6
2023-04-22T15:44:00.070Z, 51.3
2023-04-22T15:46:00.044Z, 51.8
2023-04-22T15:48:00.120Z, 51.4
2023-04-22T15:50:00.145Z, 52
2023-04-22T15:52:00.118Z, 52.4
2023-04-22T15:54:00.140Z, 51.9
2023-04-22T15:56:00.150Z, 52.5
2023-04-22T15:58:00.121Z, 52.5
2023-04-22T16:00:10.109Z, 53.3
2023-04-22T16:02:00.232Z, 53.6
2023-04-22T16:04:00.207Z, 54.3
2023-04-22T16:06:00.116Z, 53.5
2023-04-22T16:08:00.137Z, 53.3
2023-04-22T16:10:00.196Z, 52.6
2023-04-22T16:12:00.127Z, 53.7
2023-04-22T16:14:00.134Z, 52.8
2023-04-22T16:16:00.165Z, 53.1
2023-04-22T16:18:00.220Z, 52.2
2023-04-22T16:20:00.170Z, 52.8
2023-04-22T16:22:00.076Z, 53.4
2023-04-22T16:24:00.103Z, 53.5
2023-04-22T16:26:00.035Z, 53.3
2023-04-22T16:28:00.056Z, 53.1
2023-04-22T16:30:00.140Z, 53.3
2023-04-22T16:32:00.053Z, 53
2023-04-22T16:34:00.044Z, 52.8
2023-04-22T16:36:00.078Z, 53
2023-04-22T16:38:00.073Z, 54.4
2023-04-22T16:40:00.078Z, 55.5
2023-04-22T16:42:00.137Z, 55.6
2023-04-22T16:44:00.071Z, 56.1
2023-04-22T16:46:00.118Z, 55.6
2023-04-22T16:48:00.129Z, 54.7
2023-04-22T16:50:00.111Z, 55.1
2023-04-22T16:52:00.166Z, 53.9
2023-04-22T16:54:00.134Z, 53.5
2023-04-22T16:56:00.118Z, 53.4
2023-04-22T16:58:00.137Z, 54.2
2023-04-22T17:00:00.165Z, 53.2
2023-04-22T17:02:00.160Z, 53.7
2023-04-22T17:04:00.253Z, 54.5
2023-04-22T17:06:00.134Z, 55
2023-04-22T17:08:00.148Z, 56
2023-04-22T17:10:00.178Z, 56
2023-04-22T17:12:00.145Z, 55.1
2023-04-22T17:14:00.129Z, 55.4
2023-04-22T17:16:00.148Z, 55.3
2023-04-22T17:18:00.195Z, 54.3
2023-04-22T17:20:00.076Z, 54.6
2023-04-22T17:22:00.082Z, 53.9
2023-04-22T17:24:00.130Z, 55
2023-04-22T17:26:00.018Z, 55.5
2023-04-22T17:28:00.090Z, 55.7
2023-04-22T17:30:00.064Z, 55.9
2023-04-22T17:32:00.058Z, 56.8
2023-04-22T17:34:00.061Z, 57.2
2023-04-22T17:36:00.101Z, 58.1
2023-04-22T17:38:00.091Z, 58.3
2023-04-22T17:40:00.069Z, 58.7
2023-04-22T17:42:00.052Z, 58.4
2023-04-22T17:44:00.048Z, 58.9
2023-04-22T17:46:00.042Z, 58.9
2023-04-22T17:48:00.135Z, 59.5
2023-04-22T17:50:00.094Z, 59.5
2023-04-22T17:52:00.141Z, 60.7
2023-04-22T17:54:00.127Z, 60.6
2023-04-22T17:56:00.120Z, 59.8
2023-04-22T17:58:00.139Z, 60.4
2023-04-22T18:00:00.152Z, 60.5
2023-04-22T18:02:01.494Z, 60.2
2023-04-22T18:04:00.416Z, 60.2
2023-04-22T18:06:00.135Z, 60.2
2023-04-22T18:08:00.142Z, 60.2
2023-04-22T18:10:00.139Z, 60.2
2023-04-22T18:12:00.128Z, 60.2
2023-04-22T18:14:00.113Z, 60.2
2023-04-22T18:16:00.112Z, 60.2
2023-04-22T18:18:00.176Z, 60.2
2023-04-22T18:20:13.953Z, 60.2
2023-04-22T18:22:00.696Z, 60.2
2023-04-22T18:24:00.121Z, 60.2
2023-04-22T18:26:00.089Z, 60.2
2023-04-22T18:28:00.073Z, 60.2
2023-04-22T18:30:00.078Z, 60.2
2023-04-22T18:32:00.162Z, 60.2
2023-04-22T18:34:00.060Z, 60.2
2023-04-22T18:36:00.120Z, 60.2
2023-04-22T18:38:00.097Z, 60.2
2023-04-22T18:40:00.093Z, 60.2
2023-04-22T18:42:00.075Z, 60.2
2023-04-22T18:44:00.110Z, 60.2
2023-04-22T18:46:00.131Z, 60.2
2023-04-22T18:48:00.133Z, 60.2
2023-04-22T18:50:00.136Z, 60.2
2023-04-22T18:52:00.138Z, 60.2
2023-04-22T18:54:00.268Z, 65.8
2023-04-22T18:56:00.116Z, 65.9
2023-04-22T18:58:00.088Z, 66
2023-04-22T19:00:00.120Z, 66.2
2023-04-22T19:02:00.111Z, 66.6
2023-04-22T19:04:00.183Z, 67.5
2023-04-22T19:06:00.123Z, 67.4
2023-04-22T19:08:00.172Z, 68.1
2023-04-22T19:10:00.121Z, 68.1
2023-04-22T19:12:00.124Z, 68.9
2023-04-22T19:14:00.128Z, 69.6
2023-04-22T19:16:00.169Z, 70.2
2023-04-22T19:18:00.439Z, 70.8
2023-04-22T19:20:00.078Z, 71.3
2023-04-22T19:22:00.057Z, 71.9
2023-04-22T19:24:00.103Z, 71.6
2023-04-22T19:26:00.034Z, 72.1
2023-04-22T19:28:00.044Z, 72.9
2023-04-22T19:30:00.109Z, 73.5
2023-04-22T19:32:00.035Z, 74.4
2023-04-22T19:34:00.011Z, 74.8
2023-04-22T19:36:00.061Z, 75.6
2023-04-22T19:38:00.059Z, 76.5
2023-04-22T19:40:00.083Z, 77.3
2023-04-22T19:42:00.071Z, 77.8
2023-04-22T19:44:00.051Z, 78.4
2023-04-22T19:46:00.049Z, 78
2023-04-22T19:48:00.102Z, 77.1
2023-04-22T19:50:00.169Z, 76.6
2023-04-22T19:52:00.101Z, 75.9
2023-04-22T19:54:00.144Z, 75.7
2023-04-22T19:56:00.146Z, 75.7
2023-04-22T19:58:00.103Z, 75.5
2023-04-22T20:00:00.153Z, 75
2023-04-22T20:02:00.240Z, 74.9
2023-04-22T20:04:00.255Z, 74.8
2023-04-22T20:06:00.131Z, 75.2
2023-04-22T20:08:00.109Z, 76.2
2023-04-22T20:10:00.126Z, 76.8
2023-04-22T20:12:00.185Z, 76.9
2023-04-22T20:14:00.111Z, 77.1
2023-04-22T20:16:00.169Z, 77.2
2023-04-22T20:18:00.211Z, 77.4
2023-04-22T20:20:00.091Z, 77.6
2023-04-22T20:22:00.069Z, 78.3
2023-04-22T20:24:00.117Z, 79.5
2023-04-22T20:26:00.064Z, 80.2
2023-04-22T20:28:00.075Z, 80.5
2023-04-22T20:30:00.114Z, 82.2
2023-04-22T20:32:00.141Z, 83.1
2023-04-22T20:34:00.042Z, 82.9
2023-04-22T20:36:00.088Z, 83.4
2023-04-22T20:38:00.125Z, 84.4
2023-04-22T20:40:00.075Z, 85.2
2023-04-22T20:42:00.099Z, 86.1
2023-04-22T20:44:00.046Z, 87.2
2023-04-22T20:46:00.086Z, 87.9
2023-04-22T20:48:00.185Z, 88.1
2023-04-22T20:50:00.158Z, 87.2
2023-04-22T20:52:00.153Z, 86.9
2023-04-22T20:54:00.124Z, 86.6
2023-04-22T20:56:00.114Z, 86.4
2023-04-22T20:58:00.152Z, 86.5
2023-04-22T21:00:00.180Z, 86.3
2023-04-22T21:02:00.257Z, 85.5
2023-04-22T21:04:00.280Z, 84.6
2023-04-22T21:06:00.163Z, 84.2
2023-04-22T21:08:00.115Z, 83.5
2023-04-22T21:10:00.214Z, 83.2
2023-04-22T21:12:00.136Z, 82.8
2023-04-22T21:14:00.138Z, 83.2
2023-04-22T21:16:00.145Z, 83.1
2023-04-22T21:18:00.192Z, 83.1
2023-04-22T21:20:00.113Z, 83
2023-04-22T21:22:00.071Z, 83
2023-04-22T21:24:00.092Z, 82.5
2023-04-22T21:26:00.057Z, 82.2
2023-04-22T21:28:00.036Z, 82
2023-04-22T21:30:00.076Z, 81.9
2023-04-22T21:32:08.602Z, 81.9
2023-04-22T21:34:00.002Z, 82
2023-04-22T21:36:00.165Z, 82.5
2023-04-22T21:38:00.051Z, 82.9
2023-04-22T21:40:00.158Z, 82.9
2023-04-22T21:42:00.067Z, 82.7
2023-04-22T21:44:00.042Z, 82.7
2023-04-22T21:46:00.109Z, 83.2
2023-04-22T21:48:00.162Z, 83.4
2023-04-22T21:50:00.189Z, 83.4
2023-04-22T21:52:00.114Z, 83.6
2023-04-22T21:54:00.126Z, 83.8
2023-04-22T21:56:00.137Z, 83.2
2023-04-22T21:58:00.124Z, 83.3
2023-04-22T22:00:00.201Z, 83.5
2023-04-22T22:02:00.225Z, 84.1
2023-04-22T22:04:00.359Z, 84.1
2023-04-22T22:06:00.136Z, 83.7
2023-04-22T22:08:00.112Z, 83.9
2023-04-22T22:10:00.153Z, 83.8
2023-04-22T22:12:00.151Z, 84.1
2023-04-22T22:14:00.117Z, 84.3
2023-04-22T22:16:00.165Z, 85.1
2023-04-22T22:18:00.230Z, 85.4
2023-04-22T22:20:00.096Z, 85.7
2023-04-22T22:22:00.061Z, 86.1
2023-04-22T22:24:00.122Z, 86.4
2023-04-22T22:26:00.046Z, 86.8
2023-04-22T22:28:00.074Z, 87.6
2023-04-22T22:30:00.073Z, 88.3
2023-04-22T22:32:00.088Z, 88.9
2023-04-22T22:34:00.038Z, 89.5
2023-04-22T22:36:00.128Z, 90.5
2023-04-22T22:38:00.046Z, 90.5
2023-04-22T22:40:00.060Z, 92
2023-04-22T22:42:00.125Z, 91.9
2023-04-22T22:44:00.069Z, 91.6
2023-04-22T22:46:00.183Z, 90.6
2023-04-22T22:48:00.184Z, 89.7
2023-04-22T22:50:00.153Z, 89.2
2023-04-22T22:52:00.101Z, 89.7
2023-04-22T22:54:00.190Z, 90
2023-04-22T22:56:00.115Z, 90.4
2023-04-22T22:58:00.102Z, 90.7
2023-04-22T23:00:00.169Z, 91.1
2023-04-22T23:02:00.153Z, 91
2023-04-22T23:04:00.391Z, 90.8
2023-04-22T23:06:00.147Z, 90.9
2023-04-22T23:08:00.124Z, 91.4
2023-04-22T23:10:00.096Z, 92
2023-04-22T23:12:00.124Z, 92.3
2023-04-22T23:14:00.112Z, 91.7
2023-04-22T23:16:00.135Z, 91
2023-04-22T23:18:00.225Z, 90.4
2023-04-22T23:20:00.092Z, 89.8
2023-04-22T23:22:00.065Z, 89.7
2023-04-22T23:24:00.113Z, 89.8
2023-04-22T23:26:00.055Z, 89.6
2023-04-22T23:28:00.060Z, 89.1
2023-04-22T23:30:00.133Z, 89.1
2023-04-22T23:32:00.050Z, 89.6
2023-04-22T23:34:00.040Z, 90.1
2023-04-22T23:36:00.062Z, 90
2023-04-22T23:38:00.050Z, 90.1
2023-04-22T23:40:00.078Z, 90.6
2023-04-22T23:42:00.057Z, 90.9
2023-04-22T23:44:00.077Z, 91.8
2023-04-22T23:46:00.099Z, 92.8
2023-04-22T23:48:00.110Z, 93.5
2023-04-22T23:50:00.141Z, 93.6
2023-04-22T23:52:00.140Z, 93.4
2023-04-22T23:54:00.137Z, 92.8
2023-04-22T23:56:00.142Z, 92.4
2023-04-22T23:58:00.099Z, 92.3
